sensor_id;sensor_type;location;lat;lon;timestamp;P1;durP1;ratioP1;P2;durP2;ratioP2
15557;SDS011;7880;50.110;9.372;2022-10-28T00:01:25;5.200000000000001;;;3.7000000000000006;;
15557;SDS011;7880;50.110;9.372;2022-10-28T00:06:33;8.707692307692309;;;3.600000000000001;;
15557;SDS011;7880;50.110;9.372;2022-10-28T00:11:35;5.56923076923077;;;3.399999999999999;;
15557;SDS011;7880;50.110;9.372;2022-10-28T00:16:40;6.284615384615386;;;3.946153846153846;;
15557;SDS011;7880;50.110;9.372;2022-10-28T00:21:47;5.292307692307692;;;4.23076923076923;;
15557;SDS011;7880;50.110;9.372;2022-10-28T00:26:50;6.1;;;3.8307692307692305;;
15557;SDS011;7880;50.110;9.372;2022-10-28T00:32:02;4.16923076923077;;;3.2999999999999994;;
15557;SDS011;7880;50.110;9.372;2022-10-28T00:37:00;6.80769230769231;;;3.9615384615384617;;
15557;SDS011;7880;50.110;9.372;2022-10-28T00:42:06;5.323076923076924;;;4.730769230769231;;
15557;SDS011;7880;50.110;9.372;2022-10-28T00:47:11;4.96923076923077;;;3.7000000000000006;;
15557;SDS011;7880;50.110;9.372;2022-10-28T00:52:17;8.238461538461536;;;4.8999999999999995;;
15557;SDS011;7880;50.110;9.372;2022-10-28T00:57:29;15.384615384615385;;;5.369230769230768;;
15557;SDS011;7880;50.110;9.372;2022-10-28T01:02:28;8.86923076923077;;;4.730769230769231;;
15557;SDS011;7880;50.110;9.372;2022-10-28T01:07:31;12.123076923076924;;;6.56923076923077;;
15557;SDS011;7880;50.110;9.372;2022-10-28T01:12:40;9.976923076923075;;;5.299999999999999;;
15557;SDS011;7880;50.110;9.372;2022-10-28T01:17:53;5.823076923076924;;;4.86153846153846;;
15557;SDS011;7880;50.110;9.372;2022-10-28T01:22:55;10.63846153846154;;;5.03076923076923;;
15557;SDS011;7880;50.110;9.372;2022-10-28T01:28:06;7.400000000000001;;;5.43076923076923;;
15557;SDS011;7880;50.110;9.372;2022-10-28T01:32:58;6.669230769230769;;;4.93076923076923;;
15557;SDS011;7880;50.110;9.372;2022-10-28T01:38:35;9.707692307692309;;;5.200000000000001;;
15557;SDS011;7880;50.110;9.372;2022-10-28T01:43:28;9.469230769230771;;;5.730769230769231;;
15557;SDS011;7880;50.110;9.372;2022-10-28T01:48:31;6.900000000000001;;;5.130769230769232;;
15557;SDS011;7880;50.110;9.372;2022-10-28T01:52:27;7.700000000000002;;;7.0;;
15557;SDS011;7880;50.110;9.372;2022-10-28T01:57:32;8.23076923076923;;;6.43076923076923;;
15557;SDS011;7880;50.110;9.372;2022-10-28T02:02:37;10.023076923076925;;;6.161538461538462;;
15557;SDS011;7880;50.110;9.372;2022-10-28T02:07:41;13.461538461538462;;;6.43076923076923;;
15557;SDS011;7880;50.110;9.372;2022-10-28T02:12:45;11.007692307692308;;;7.469230769230771;;
15557;SDS011;7880;50.110;9.372;2022-10-28T02:17:53;11.907692307692304;;;6.200000000000002;;
15557;SDS011;7880;50.110;9.372;2022-10-28T02:23:04;11.807692307692312;;;7.299999999999998;;
15557;SDS011;7880;50.110;9.372;2022-10-28T02:27:58;10.13846153846154;;;6.830769230769231;;
15557;SDS011;7880;50.110;9.372;2022-10-28T02:33:03;12.3;;;6.93076923076923;;
15557;SDS011;7880;50.110;9.372;2022-10-28T02:38:06;9.33076923076923;;;7.200000000000002;;
15557;SDS011;7880;50.110;9.372;2022-10-28T02:43:12;10.400000000000002;;;6.330769230769231;;
15557;SDS011;7880;50.110;9.372;2022-10-28T02:48:18;13.569230769230767;;;6.900000000000001;;
15557;SDS011;7880;50.110;9.372;2022-10-28T02:53:44;8.73076923076923;;;6.130769230769232;;
15557;SDS011;7880;50.110;9.372;2022-10-28T02:58:36;8.900000000000002;;;5.700000000000002;;
15557;SDS011;7880;50.110;9.372;2022-10-28T03:03:36;13.946153846153841;;;6.753846153846155;;
15557;SDS011;7880;50.110;9.372;2022-10-28T03:08:38;8.26153846153846;;;5.299999999999999;;
15557;SDS011;7880;50.110;9.372;2022-10-28T03:13:40;10.269230769230766;;;6.530769230769229;;
15557;SDS011;7880;50.110;9.372;2022-10-28T03:18:44;14.699999999999998;;;7.299999999999998;;
15557;SDS011;7880;50.110;9.372;2022-10-28T03:23:47;12.176923076923076;;;7.169230769230769;;
15557;SDS011;7880;50.110;9.372;2022-10-28T03:28:50;14.330769230769231;;;7.89230769230769;;
15557;SDS011;7880;50.110;9.372;2022-10-28T03:34:04;14.169230769230769;;;8.830769230769231;;
15557;SDS011;7880;50.110;9.372;2022-10-28T03:39:12;11.953846153846154;;;8.492307692307694;;
15557;SDS011;7880;50.110;9.372;2022-10-28T03:44:04;12.261538461538464;;;8.761538461538462;;
15557;SDS011;7880;50.110;9.372;2022-10-28T03:49:09;13.584615384615388;;;9.346153846153847;;
15557;SDS011;7880;50.110;9.372;2022-10-28T03:54:13;20.76923076923077;;;10.89230769230769;;
15557;SDS011;7880;50.110;9.372;2022-10-28T03:59:19;24.47692307692307;;;11.3;;
15557;SDS011;7880;50.110;9.372;2022-10-28T04:04:26;13.023076923076928;;;9.299999999999999;;
15557;SDS011;7880;50.110;9.372;2022-10-28T04:09:27;18.292307692307695;;;11.353846153846153;;
15557;SDS011;7880;50.110;9.372;2022-10-28T04:14:30;19.407692307692304;;;10.33076923076923;;
15557;SDS011;7880;50.110;9.372;2022-10-28T04:19:35;15.761538461538464;;;10.430769230769231;;
15557;SDS011;7880;50.110;9.372;2022-10-28T04:24:37;15.10769230769231;;;10.7;;
15557;SDS011;7880;50.110;9.372;2022-10-28T04:29:46;21.615384615384617;;;10.8;;
15557;SDS011;7880;50.110;9.372;2022-10-28T04:34:47;16.07692307692308;;;10.269230769230766;;
15557;SDS011;7880;50.110;9.372;2022-10-28T04:39:55;15.86153846153846;;;9.299999999999999;;
15557;SDS011;7880;50.110;9.372;2022-10-28T04:45:07;18.507692307692306;;;8.761538461538462;;
15557;SDS011;7880;50.110;9.372;2022-10-28T04:50:01;13.60769230769231;;;9.269230769230768;;
15557;SDS011;7880;50.110;9.372;2022-10-28T04:55:05;13.699999999999998;;;9.700000000000001;;
15557;SDS011;7880;50.110;9.372;2022-10-28T05:00:10;18.76923076923077;;;10.099999999999998;;
15557;SDS011;7880;50.110;9.372;2022-10-28T05:05:13;14.438461538461542;;;9.069230769230769;;
15557;SDS011;7880;50.110;9.372;2022-10-28T05:10:17;18.815384615384612;;;9.315384615384618;;
15557;SDS011;7880;50.110;9.372;2022-10-28T05:15:20;16.300000000000004;;;9.5;;
15557;SDS011;7880;50.110;9.372;2022-10-28T05:20:24;14.00769230769231;;;8.900000000000002;;
15557;SDS011;7880;50.110;9.372;2022-10-28T05:25:28;14.738461538461536;;;8.13076923076923;;
15557;SDS011;7880;50.110;9.372;2022-10-28T05:30:39;9.823076923076924;;;8.099999999999998;;
15557;SDS011;7880;50.110;9.372;2022-10-28T05:35:39;16.099999999999998;;;10.0;;
15557;SDS011;7880;50.110;9.372;2022-10-28T05:40:40;12.869230769230775;;;8.430769230769231;;
15557;SDS011;7880;50.110;9.372;2022-10-28T05:45:50;20.71538461538462;;;9.400000000000002;;
15557;SDS011;7880;50.110;9.372;2022-10-28T05:50:46;15.015384615384619;;;8.299999999999999;;
15557;SDS011;7880;50.110;9.372;2022-10-28T05:55:49;12.453846153846156;;;8.93846153846154;;
15557;SDS011;7880;50.110;9.372;2022-10-28T06:00:52;15.407692307692304;;;9.669230769230769;;
15557;SDS011;7880;50.110;9.372;2022-10-28T06:05:58;20.815384615384612;;;9.13076923076923;;
15557;SDS011;7880;50.110;9.372;2022-10-28T06:11:00;14.807692307692308;;;8.830769230769231;;
15557;SDS011;7880;50.110;9.372;2022-10-28T06:16:14;16.099999999999998;;;8.930769230769231;;
15557;SDS011;7880;50.110;9.372;2022-10-28T06:21:11;15.076923076923082;;;10.269230769230766;;
15557;SDS011;7880;50.110;9.372;2022-10-28T06:26:15;16.52307692307693;;;8.892307692307691;;
15557;SDS011;7880;50.110;9.372;2022-10-28T06:31:23;14.5;;;9.530769230769229;;
15557;SDS011;7880;50.110;9.372;2022-10-28T06:36:21;12.60769230769231;;;9.099999999999998;;
15557;SDS011;7880;50.110;9.372;2022-10-28T06:41:25;19.384615384615383;;;9.400000000000002;;
15557;SDS011;7880;50.110;9.372;2022-10-28T06:46:29;15.099999999999996;;;9.930769230769231;;
15557;SDS011;7880;50.110;9.372;2022-10-28T06:51:32;15.923076923076918;;;9.630769230769229;;
15557;SDS011;7880;50.110;9.372;2022-10-28T06:56:45;15.369230769230766;;;10.107692307692307;;
15557;SDS011;7880;50.110;9.372;2022-10-28T07:01:47;17.02307692307692;;;10.63076923076923;;
15557;SDS011;7880;50.110;9.372;2022-10-28T07:06:53;14.907692307692304;;;9.86153846153846;;
15557;SDS011;7880;50.110;9.372;2022-10-28T07:11:53;17.138461538461538;;;9.692307692307692;;
15557;SDS011;7880;50.110;9.372;2022-10-28T07:16:57;14.630769230769225;;;9.86923076923077;;
15557;SDS011;7880;50.110;9.372;2022-10-28T07:22:11;12.961538461538462;;;9.36923076923077;;
15557;SDS011;7880;50.110;9.372;2022-10-28T07:27:05;16.669230769230765;;;11.461538461538462;;
15557;SDS011;7880;50.110;9.372;2022-10-28T07:32:13;16.192307692307697;;;9.730769230769234;;
15557;SDS011;7880;50.110;9.372;2022-10-28T07:37:15;11.953846153846156;;;9.099999999999998;;
15557;SDS011;7880;50.110;9.372;2022-10-28T07:42:32;14.484615384615385;;;8.330769230769231;;
15557;SDS011;7880;50.110;9.372;2022-10-28T07:47:24;17.776923076923076;;;9.83076923076923;;
15557;SDS011;7880;50.110;9.372;2022-10-28T07:52:26;15.630769230769225;;;9.469230769230771;;
15557;SDS011;7880;50.110;9.372;2022-10-28T07:57:31;12.092307692307696;;;8.700000000000001;;
15557;SDS011;7880;50.110;9.372;2022-10-28T08:02:35;15.876923076923076;;;9.461538461538462;;
15557;SDS011;7880;50.110;9.372;2022-10-28T08:07:43;11.630769230769229;;;8.830769230769231;;
15557;SDS011;7880;50.110;9.372;2022-10-28T08:12:48;13.407692307692304;;;9.099999999999998;;
15557;SDS011;7880;50.110;9.372;2022-10-28T08:17:49;11.984615384615383;;;8.861538461538462;;
15557;SDS011;7880;50.110;9.372;2022-10-28T08:22:52;17.800000000000004;;;8.5;;
15557;SDS011;7880;50.110;9.372;2022-10-28T08:27:56;9.969230769230771;;;8.061538461538463;;
15557;SDS011;7880;50.110;9.372;2022-10-28T08:32:58;11.33076923076923;;;8.799999999999999;;
15557;SDS011;7880;50.110;9.372;2022-10-28T08:38:06;11.876923076923076;;;7.799999999999998;;
15557;SDS011;7880;50.110;9.372;2022-10-28T08:43:18;11.66923076923077;;;7.130769230769232;;
15557;SDS011;7880;50.110;9.372;2022-10-28T08:48:13;16.107692307692307;;;8.13076923076923;;
15557;SDS011;7880;50.110;9.372;2022-10-28T08:53:18;11.769230769230765;;;6.330769230769231;;
15557;SDS011;7880;50.110;9.372;2022-10-28T08:58:27;9.36923076923077;;;6.700000000000002;;
15557;SDS011;7880;50.110;9.372;2022-10-28T09:03:39;13.64615384615385;;;6.4;;
15557;SDS011;7880;50.110;9.372;2022-10-28T09:08:47;9.107692307692306;;;6.5;;
15557;SDS011;7880;50.110;9.372;2022-10-28T09:13:35;11.876923076923076;;;6.4;;
15557;SDS011;7880;50.110;9.372;2022-10-28T09:18:42;12.569230769230767;;;6.830769230769231;;
15557;SDS011;7880;50.110;9.372;2022-10-28T09:23:41;10.969230769230771;;;6.130769230769232;;
15557;SDS011;7880;50.110;9.372;2022-10-28T09:28:49;7.799999999999998;;;6.200000000000002;;
15557;SDS011;7880;50.110;9.372;2022-10-28T09:33:52;14.099999999999996;;;7.099999999999999;;
15557;SDS011;7880;50.110;9.372;2022-10-28T09:38:56;11.13846153846154;;;5.730769230769231;;
15557;SDS011;7880;50.110;9.372;2022-10-28T09:43:58;8.569230769230769;;;5.230769230769231;;
15557;SDS011;7880;50.110;9.372;2022-10-28T09:49:01;13.707692307692307;;;4.761538461538462;;
15557;SDS011;7880;50.110;9.372;2022-10-28T09:54:06;8.569230769230769;;;3.899999999999999;;
15557;SDS011;7880;50.110;9.372;2022-10-28T09:59:10;6.161538461538462;;;4.33076923076923;;
15557;SDS011;7880;50.110;9.372;2022-10-28T10:04:15;7.10769230769231;;;4.269230769230769;;
15557;SDS011;7880;50.110;9.372;2022-10-28T10:09:18;9.199999999999998;;;4.530769230769231;;
15557;SDS011;7880;50.110;9.372;2022-10-28T10:14:23;8.169230769230769;;;3.7999999999999994;;
15557;SDS011;7880;50.110;9.372;2022-10-28T10:19:27;7.038461538461541;;;3.630769230769232;;
15557;SDS011;7880;50.110;9.372;2022-10-28T10:24:38;5.484615384615386;;;3.030769230769231;;
15557;SDS011;7880;50.110;9.372;2022-10-28T10:29:33;9.13076923076923;;;3.899999999999999;;
15557;SDS011;7880;50.110;9.372;2022-10-28T10:34:37;7.43076923076923;;;3.2;;
15557;SDS011;7880;50.110;9.372;2022-10-28T10:39:56;11.484615384615383;;;4.0307692307692315;;
15557;SDS011;7880;50.110;9.372;2022-10-28T10:44:45;7.253846153846155;;;3.630769230769232;;
15557;SDS011;7880;50.110;9.372;2022-10-28T10:49:51;7.784615384615386;;;3.7999999999999994;;
15557;SDS011;7880;50.110;9.372;2022-10-28T10:54:58;11.707692307692307;;;3.7000000000000006;;
15557;SDS011;7880;50.110;9.372;2022-10-28T10:59:55;7.93846153846154;;;2.8615384615384616;;
15557;SDS011;7880;50.110;9.372;2022-10-28T11:05:00;6.0076923076923086;;;2.7692307692307705;;
15557;SDS011;7880;50.110;9.372;2022-10-28T11:10:03;8.738461538461538;;;2.8615384615384616;;
15557;SDS011;7880;50.110;9.372;2022-10-28T11:15:19;11.007692307692308;;;2.899999999999999;;
15557;SDS011;7880;50.110;9.372;2022-10-28T11:20:20;11.007692307692306;;;3.2076923076923074;;
15557;SDS011;7880;50.110;9.372;2022-10-28T11:25:32;5.038461538461539;;;3.169230769230769;;
15557;SDS011;7880;50.110;9.372;2022-10-28T11:30:26;6.807692307692306;;;2.6000000000000005;;
15557;SDS011;7880;50.110;9.372;2022-10-28T11:35:34;6.838461538461539;;;3.2;;
15557;SDS011;7880;50.110;9.372;2022-10-28T11:40:51;5.938461538461538;;;2.7692307692307705;;
15557;SDS011;7880;50.110;9.372;2022-10-28T11:45:41;12.115384615384611;;;3.100000000000001;;
15557;SDS011;7880;50.110;9.372;2022-10-28T11:50:46;10.907692307692306;;;2.8;;
15557;SDS011;7880;50.110;9.372;2022-10-28T11:55:50;7.276923076923077;;;3.100000000000001;;
15557;SDS011;7880;50.110;9.372;2022-10-28T12:00:55;7.138461538461541;;;2.3000000000000003;;
15557;SDS011;7880;50.110;9.372;2022-10-28T12:06:06;8.36923076923077;;;2.430769230769231;;
15557;SDS011;7880;50.110;9.372;2022-10-28T12:11:08;5.3307692307692305;;;3.261538461538461;;
15557;SDS011;7880;50.110;9.372;2022-10-28T12:16:12;7.669230769230769;;;2.3615384615384616;;
15557;SDS011;7880;50.110;9.372;2022-10-28T12:21:13;17.476923076923075;;;2.7307692307692295;;
15557;SDS011;7880;50.110;9.372;2022-10-28T12:26:15;10.0;;;2.8;;
15557;SDS011;7880;50.110;9.372;2022-10-28T12:31:22;9.976923076923075;;;2.5;;
15557;SDS011;7880;50.110;9.372;2022-10-28T12:36:26;5.553846153846154;;;2.0615384615384613;;
15557;SDS011;7880;50.110;9.372;2022-10-28T12:41:39;5.53076923076923;;;2.230769230769231;;
15557;SDS011;7880;50.110;9.372;2022-10-28T12:46:41;12.261538461538464;;;2.7;;
15557;SDS011;7880;50.110;9.372;2022-10-28T12:51:39;4.299999999999999;;;1.8999999999999997;;
15557;SDS011;7880;50.110;9.372;2022-10-28T12:56:41;10.092307692307694;;;2.7;;
15557;SDS011;7880;50.110;9.372;2022-10-28T13:01:45;8.469230769230771;;;3.469230769230769;;
15557;SDS011;7880;50.110;9.372;2022-10-28T13:06:56;6.807692307692306;;;2.1999999999999997;;
15557;SDS011;7880;50.110;9.372;2022-10-28T13:11:59;7.038461538461541;;;2.6000000000000005;;
15557;SDS011;7880;50.110;9.372;2022-10-28T13:17:05;8.607692307692309;;;2.8692307692307684;;
15557;SDS011;7880;50.110;9.372;2022-10-28T13:22:12;11.26923076923077;;;3.100000000000001;;
15557;SDS011;7880;50.110;9.372;2022-10-28T13:27:07;6.10769230769231;;;2.369230769230769;;
15557;SDS011;7880;50.110;9.372;2022-10-28T13:32:27;5.130769230769232;;;1.8307692307692305;;
15557;SDS011;7880;50.110;9.372;2022-10-28T13:37:30;9.246153846153847;;;2.569230769230769;;
15557;SDS011;7880;50.110;9.372;2022-10-28T13:42:46;8.569230769230769;;;2.530769230769231;;
15557;SDS011;7880;50.110;9.372;2022-10-28T13:47:37;6.061538461538462;;;2.661538461538462;;
15557;SDS011;7880;50.110;9.372;2022-10-28T13:52:36;7.099999999999999;;;2.7;;
15557;SDS011;7880;50.110;9.372;2022-10-28T13:57:48;3.630769230769232;;;2.0;;
15557;SDS011;7880;50.110;9.372;2022-10-28T14:02:38;7.638461538461538;;;2.4461538461538455;;
15557;SDS011;7880;50.110;9.372;2022-10-28T14:07:49;7.038461538461541;;;2.5;;
15557;SDS011;7880;50.110;9.372;2022-10-28T14:12:54;16.72307692307692;;;3.169230769230769;;
15557;SDS011;7880;50.110;9.372;2022-10-28T14:17:58;8.576923076923077;;;2.7692307692307705;;
15557;SDS011;7880;50.110;9.372;2022-10-28T14:22:55;9.046153846153848;;;2.0692307692307694;;
15557;SDS011;7880;50.110;9.372;2022-10-28T14:28:00;14.576923076923082;;;3.369230769230768;;
15557;SDS011;7880;50.110;9.372;2022-10-28T14:33:17;6.092307692307694;;;2.430769230769231;;
15557;SDS011;7880;50.110;9.372;2022-10-28T14:38:18;9.169230769230769;;;2.7;;
15557;SDS011;7880;50.110;9.372;2022-10-28T14:43:15;6.10769230769231;;;2.3999999999999995;;
15557;SDS011;7880;50.110;9.372;2022-10-28T14:48:26;9.346153846153847;;;3.06923076923077;;
15557;SDS011;7880;50.110;9.372;2022-10-28T14:53:27;8.83846153846154;;;3.2999999999999994;;
15557;SDS011;7880;50.110;9.372;2022-10-28T14:58:35;6.661538461538461;;;2.7;;
15557;SDS011;7880;50.110;9.372;2022-10-28T15:03:35;11.77692307692308;;;3.6692307692307695;;
15557;SDS011;7880;50.110;9.372;2022-10-28T15:08:37;5.5;;;2.7;;
15557;SDS011;7880;50.110;9.372;2022-10-28T15:13:46;7.1999999999999975;;;2.269230769230769;;
15557;SDS011;7880;50.110;9.372;2022-10-28T15:18:54;5.815384615384614;;;2.7;;
15557;SDS011;7880;50.110;9.372;2022-10-28T15:24:01;5.630769230769232;;;2.230769230769231;;
15557;SDS011;7880;50.110;9.372;2022-10-28T15:29:07;5.769230769230769;;;2.5;;
15557;SDS011;7880;50.110;9.372;2022-10-28T15:34:19;6.169230769230769;;;2.569230769230769;;
15557;SDS011;7880;50.110;9.372;2022-10-28T15:39:16;9.476923076923075;;;3.100000000000001;;
15557;SDS011;7880;50.110;9.372;2022-10-28T15:44:30;6.5;;;2.8;;
15557;SDS011;7880;50.110;9.372;2022-10-28T15:49:30;7.876923076923076;;;3.06923076923077;;
15557;SDS011;7880;50.110;9.372;2022-10-28T15:54:29;8.099999999999998;;;3.2692307692307705;;
15557;SDS011;7880;50.110;9.372;2022-10-28T15:59:38;7.599999999999999;;;2.7;;
15557;SDS011;7880;50.110;9.372;2022-10-28T16:04:46;6.238461538461536;;;2.8;;
15557;SDS011;7880;50.110;9.372;2022-10-28T16:09:44;7.546153846153843;;;2.7;;
15557;SDS011;7880;50.110;9.372;2022-10-28T16:14:52;11.246153846153847;;;3.030769230769231;;
15557;SDS011;7880;50.110;9.372;2022-10-28T16:19:57;9.515384615384615;;;3.2;;
15557;SDS011;7880;50.110;9.372;2022-10-28T16:25:04;6.592307692307691;;;2.630769230769231;;
15557;SDS011;7880;50.110;9.372;2022-10-28T16:30:08;8.638461538461538;;;3.399999999999999;;
15557;SDS011;7880;50.110;9.372;2022-10-28T16:35:15;11.676923076923073;;;3.2;;
15557;SDS011;7880;50.110;9.372;2022-10-28T16:40:19;10.407692307692308;;;3.2;;
15557;SDS011;7880;50.110;9.372;2022-10-28T16:45:24;5.561538461538461;;;3.0;;
15557;SDS011;7880;50.110;9.372;2022-10-28T16:50:30;8.569230769230769;;;3.2999999999999994;;
15557;SDS011;7880;50.110;9.372;2022-10-28T16:55:38;6.338461538461538;;;2.3000000000000003;;
15557;SDS011;7880;50.110;9.372;2022-10-28T17:00:51;5.46923076923077;;;3.399999999999999;;
15557;SDS011;7880;50.110;9.372;2022-10-28T17:59:38;10.146153846153844;;;3.6692307692307695;;
15557;SDS011;7880;50.110;9.372;2022-10-28T18:04:45;9.707692307692309;;;3.530769230769231;;
15557;SDS011;7880;50.110;9.372;2022-10-28T18:09:52;7.307692307692306;;;3.100000000000001;;
15557;SDS011;7880;50.110;9.372;2022-10-28T18:14:53;13.015384615384615;;;3.169230769230769;;
15557;SDS011;7880;50.110;9.372;2022-10-28T18:20:01;7.207692307692307;;;2.969230769230769;;
15557;SDS011;7880;50.110;9.372;2022-10-28T18:25:04;13.884615384615385;;;3.600000000000001;;
15557;SDS011;7880;50.110;9.372;2022-10-28T18:30:09;10.076923076923078;;;3.2999999999999994;;
15557;SDS011;7880;50.110;9.372;2022-10-28T18:35:19;10.930769230769233;;;3.2692307692307705;;
15557;SDS011;7880;50.110;9.372;2022-10-28T18:40:22;10.115384615384613;;;3.338461538461539;;
15557;SDS011;7880;50.110;9.372;2022-10-28T18:45:23;15.984615384615383;;;3.169230769230769;;
15557;SDS011;7880;50.110;9.372;2022-10-28T18:50:31;14.746153846153849;;;3.469230769230769;;
15557;SDS011;7880;50.110;9.372;2022-10-28T18:55:32;6.338461538461538;;;2.630769230769231;;
15557;SDS011;7880;50.110;9.372;2022-10-28T19:00:42;13.615384615384611;;;3.100000000000001;;
15557;SDS011;7880;50.110;9.372;2022-10-28T19:05:43;21.48461538461538;;;6.030769230769229;;
15557;SDS011;7880;50.110;9.372;2022-10-28T19:10:53;21.73076923076923;;;9.069230769230769;;
15557;SDS011;7880;50.110;9.372;2022-10-28T19:15:52;17.069230769230767;;;7.299999999999998;;
15557;SDS011;7880;50.110;9.372;2022-10-28T19:21:01;31.78461538461539;;;13.969230769230771;;
15557;SDS011;7880;50.110;9.372;2022-10-28T19:26:04;34.07692307692308;;;13.630769230769225;;
15557;SDS011;7880;50.110;9.372;2022-10-28T19:31:09;27.546153846153842;;;13.007692307692306;;
15557;SDS011;7880;50.110;9.372;2022-10-28T19:36:14;27.47692307692307;;;12.3;;
15557;SDS011;7880;50.110;9.372;2022-10-28T19:41:18;24.084615384615386;;;9.86153846153846;;
15557;SDS011;7880;50.110;9.372;2022-10-28T19:46:25;23.846153846153847;;;9.630769230769229;;
15557;SDS011;7880;50.110;9.372;2022-10-28T19:51:29;37.661538461538456;;;16.130769230769225;;
15557;SDS011;7880;50.110;9.372;2022-10-28T19:56:34;30.530769230769238;;;12.192307692307692;;
15557;SDS011;7880;50.110;9.372;2022-10-28T20:01:38;25.053846153846163;;;9.538461538461537;;
15557;SDS011;7880;50.110;9.372;2022-10-28T20:06:43;23.876923076923084;;;10.16923076923077;;
15557;SDS011;7880;50.110;9.372;2022-10-28T20:11:48;16.846153846153847;;;7.43076923076923;;
15557;SDS011;7880;50.110;9.372;2022-10-28T20:16:53;16.015384615384612;;;6.769230769230769;;
15557;SDS011;7880;50.110;9.372;2022-10-28T20:22:06;16.192307692307693;;;6.584615384615384;;
15557;SDS011;7880;50.110;9.372;2022-10-28T20:27:03;18.476923076923075;;;6.900000000000001;;
15557;SDS011;7880;50.110;9.372;2022-10-28T20:32:10;10.838461538461539;;;5.9;;
15557;SDS011;7880;50.110;9.372;2022-10-28T20:37:13;18.45384615384615;;;6.799999999999998;;
15557;SDS011;7880;50.110;9.372;2022-10-28T20:42:18;16.815384615384616;;;5.746153846153847;;
15557;SDS011;7880;50.110;9.372;2022-10-28T20:47:22;13.77692307692308;;;5.0;;
15557;SDS011;7880;50.110;9.372;2022-10-28T20:52:27;9.815384615384618;;;3.2;;
15557;SDS011;7880;50.110;9.372;2022-10-28T20:57:33;10.046153846153848;;;3.2;;
15557;SDS011;7880;50.110;9.372;2022-10-28T21:02:38;12.884615384615385;;;4.369230769230769;;
15557;SDS011;7880;50.110;9.372;2022-10-28T21:07:44;8.238461538461536;;;3.7000000000000006;;
15557;SDS011;7880;50.110;9.372;2022-10-28T21:12:49;9.169230769230769;;;3.7307692307692295;;
15557;SDS011;7880;50.110;9.372;2022-10-28T21:17:54;10.053846153846155;;;3.100000000000001;;
15557;SDS011;7880;50.110;9.372;2022-10-28T21:22:59;7.823076923076922;;;2.7307692307692295;;
15557;SDS011;7880;50.110;9.372;2022-10-28T21:28:03;10.13076923076923;;;3.100000000000001;;
15557;SDS011;7880;50.110;9.372;2022-10-28T21:33:10;7.238461538461538;;;3.399999999999999;;
15557;SDS011;7880;50.110;9.372;2022-10-28T21:38:17;10.992307692307698;;;3.83076923076923;;
15557;SDS011;7880;50.110;9.372;2022-10-28T21:43:21;10.323076923076924;;;3.130769230769232;;
15557;SDS011;7880;50.110;9.372;2022-10-28T21:48:26;12.54615384615385;;;3.5;;
15557;SDS011;7880;50.110;9.372;2022-10-28T21:53:31;8.623076923076924;;;3.5;;
15557;SDS011;7880;50.110;9.372;2022-10-28T21:58:36;14.792307692307693;;;3.661538461538461;;
15557;SDS011;7880;50.110;9.372;2022-10-28T22:03:41;15.615384615384611;;;4.200000000000001;;
15557;SDS011;7880;50.110;9.372;2022-10-28T22:08:46;13.738461538461536;;;4.1000000000000005;;
15557;SDS011;7880;50.110;9.372;2022-10-28T22:13:54;9.400000000000002;;;3.130769230769232;;
15557;SDS011;7880;50.110;9.372;2022-10-28T22:18:56;16.876923076923074;;;3.600000000000001;;
15557;SDS011;7880;50.110;9.372;2022-10-28T22:24:01;7.599999999999999;;;3.399999999999999;;
15557;SDS011;7880;50.110;9.372;2022-10-28T22:29:09;17.076923076923077;;;4.130769230769232;;
15557;SDS011;7880;50.110;9.372;2022-10-28T22:34:11;17.292307692307688;;;4.469230769230769;;
15557;SDS011;7880;50.110;9.372;2022-10-28T22:39:16;8.753846153846153;;;3.7307692307692295;;
15557;SDS011;7880;50.110;9.372;2022-10-28T22:44:21;12.00769230769231;;;3.6692307692307695;;
15557;SDS011;7880;50.110;9.372;2022-10-28T22:49:26;15.653846153846153;;;3.969230769230769;;
15557;SDS011;7880;50.110;9.372;2022-10-28T22:54:30;11.146153846153847;;;3.5;;
15557;SDS011;7880;50.110;9.372;2022-10-28T22:59:35;12.384615384615389;;;3.7000000000000006;;
15557;SDS011;7880;50.110;9.372;2022-10-28T23:04:03;13.746153846153847;;;4.299999999999999;;
15557;SDS011;7880;50.110;9.372;2022-10-28T23:09:07;9.753846153846153;;;3.7999999999999994;;
15557;SDS011;7880;50.110;9.372;2022-10-28T23:14:12;11.861538461538466;;;3.561538461538462;;
15557;SDS011;7880;50.110;9.372;2022-10-28T23:19:21;10.869230769230771;;;3.7307692307692295;;
15557;SDS011;7880;50.110;9.372;2022-10-28T23:24:34;10.869230769230771;;;4.369230769230769;;
15557;SDS011;7880;50.110;9.372;2022-10-28T23:29:28;15.446153846153843;;;3.8307692307692305;;